sensor_id;sensor_type;location;lat;lon;timestamp;pressure;altitude;pressure_sealevel;temperature;humidity
11329;BME280;5719;42.714;23.732;2022-10-16T00:00:43;95077.00;;;9.92;98.14
11329;BME280;5719;42.714;23.732;2022-10-16T00:03:10;95071.84;;;9.77;98.89
11329;BME280;5719;42.714;23.732;2022-10-16T00:05:39;95063.91;;;9.80;97.62
11329;BME280;5719;42.714;23.732;2022-10-16T00:08:07;95067.25;;;9.82;96.96
11329;BME280;5719;42.714;23.732;2022-10-16T00:10:34;95026.09;;;9.51;97.04
11329;BME280;5719;42.714;23.732;2022-10-16T00:13:02;95065.38;;;9.70;97.35
11329;BME280;5719;42.714;23.732;2022-10-16T00:15:30;95074.22;;;9.66;96.24
11329;BME280;5719;42.714;23.732;2022-10-16T00:17:59;95071.91;;;9.62;95.53
11329;BME280;5719;42.714;23.732;2022-10-16T00:20:26;95083.00;;;9.64;94.99
11329;BME280;5719;42.714;23.732;2022-10-16T00:22:52;95076.59;;;9.55;97.23
11329;BME280;5719;42.714;23.732;2022-10-16T00:25:19;95083.63;;;9.53;99.02
11329;BME280;5719;42.714;23.732;2022-10-16T00:27:46;95082.78;;;9.23;98.14
11329;BME280;5719;42.714;23.732;2022-10-16T00:30:13;95086.63;;;9.16;98.91
11329;BME280;5719;42.714;23.732;2022-10-16T00:32:41;95097.72;;;9.18;98.89
11329;BME280;5719;42.714;23.732;2022-10-16T00:35:08;95085.56;;;9.20;97.33
11329;BME280;5719;42.714;23.732;2022-10-16T00:37:35;95087.41;;;9.18;96.93
11329;BME280;5719;42.714;23.732;2022-10-16T00:40:02;95076.44;;;9.14;95.94
11329;BME280;5719;42.714;23.732;2022-10-16T00:42:29;95086.22;;;9.08;96.17
11329;BME280;5719;42.714;23.732;2022-10-16T00:44:57;95083.94;;;8.88;96.79
11329;BME280;5719;42.714;23.732;2022-10-16T00:47:26;95085.09;;;8.82;97.47
11329;BME280;5719;42.714;23.732;2022-10-16T00:50:00;95088.28;;;8.87;96.56
11329;BME280;5719;42.714;23.732;2022-10-16T00:52:28;95100.31;;;8.86;97.15
11329;BME280;5719;42.714;23.732;2022-10-16T00:54:56;95109.31;;;8.79;94.99
11329;BME280;5719;42.714;23.732;2022-10-16T00:57:24;95111.41;;;8.73;94.76
11329;BME280;5719;42.714;23.732;2022-10-16T00:59:51;95097.09;;;8.67;94.04
11329;BME280;5719;42.714;23.732;2022-10-16T01:02:18;95095.38;;;8.52;94.61
11329;BME280;5719;42.714;23.732;2022-10-16T01:04:48;95093.69;;;8.51;96.10
11329;BME280;5719;42.714;23.732;2022-10-16T01:07:24;95083.25;;;8.21;100.00
11329;BME280;5719;42.714;23.732;2022-10-16T01:10:03;95094.84;;;8.13;100.00
11329;BME280;5719;42.714;23.732;2022-10-16T01:12:38;95100.09;;;8.11;100.00
11329;BME280;5719;42.714;23.732;2022-10-16T01:15:11;95093.13;;;7.98;100.00
11329;BME280;5719;42.714;23.732;2022-10-16T01:17:44;95084.84;;;7.91;100.00
11329;BME280;5719;42.714;23.732;2022-10-16T01:20:21;95102.47;;;7.99;100.00
11329;BME280;5719;42.714;23.732;2022-10-16T01:23:07;95094.59;;;8.02;100.00
11329;BME280;5719;42.714;23.732;2022-10-16T01:25:52;95102.97;;;7.89;100.00
11329;BME280;5719;42.714;23.732;2022-10-16T01:28:27;95098.28;;;7.80;100.00
11329;BME280;5719;42.714;23.732;2022-10-16T01:30:58;95102.34;;;7.84;100.00
11329;BME280;5719;42.714;23.732;2022-10-16T01:33:30;95101.47;;;7.85;100.00
11329;BME280;5719;42.714;23.732;2022-10-16T01:36:05;95099.88;;;7.83;100.00
11329;BME280;5719;42.714;23.732;2022-10-16T01:38:36;95101.47;;;7.85;100.00
11329;BME280;5719;42.714;23.732;2022-10-16T01:41:09;95098.94;;;7.84;100.00
11329;BME280;5719;42.714;23.732;2022-10-16T01:43:41;95104.34;;;7.79;100.00
11329;BME280;5719;42.714;23.732;2022-10-16T01:46:10;95105.53;;;7.72;100.00
11329;BME280;5719;42.714;23.732;2022-10-16T01:48:39;95108.97;;;7.73;100.00
11329;BME280;5719;42.714;23.732;2022-10-16T01:51:10;95109.66;;;7.59;100.00
11329;BME280;5719;42.714;23.732;2022-10-16T01:53:39;95106.03;;;7.63;100.00
11329;BME280;5719;42.714;23.732;2022-10-16T01:56:09;95102.25;;;7.53;100.00
11329;BME280;5719;42.714;23.732;2022-10-16T01:58:41;95107.69;;;7.64;100.00
11329;BME280;5719;42.714;23.732;2022-10-16T02:01:11;95113.00;;;7.61;100.00
11329;BME280;5719;42.714;23.732;2022-10-16T02:03:42;95118.97;;;7.62;100.00
11329;BME280;5719;42.714;23.732;2022-10-16T02:06:09;95120.94;;;7.57;100.00
11329;BME280;5719;42.714;23.732;2022-10-16T02:08:36;95121.16;;;7.52;100.00
11329;BME280;5719;42.714;23.732;2022-10-16T02:11:06;95126.78;;;7.43;100.00
11329;BME280;5719;42.714;23.732;2022-10-16T02:13:37;95123.91;;;7.32;100.00
11329;BME280;5719;42.714;23.732;2022-10-16T02:16:07;95124.03;;;7.29;100.00
11329;BME280;5719;42.714;23.732;2022-10-16T02:18:34;95124.66;;;7.34;100.00
11329;BME280;5719;42.714;23.732;2022-10-16T02:21:04;95117.09;;;7.31;100.00
11329;BME280;5719;42.714;23.732;2022-10-16T02:23:37;95108.22;;;7.19;100.00
11329;BME280;5719;42.714;23.732;2022-10-16T02:26:13;95129.84;;;7.15;100.00
11329;BME280;5719;42.714;23.732;2022-10-16T02:28:44;95129.69;;;7.18;100.00
11329;BME280;5719;42.714;23.732;2022-10-16T02:31:18;95128.84;;;7.18;100.00
11329;BME280;5719;42.714;23.732;2022-10-16T02:33:49;95118.88;;;7.12;100.00
11329;BME280;5719;42.714;23.732;2022-10-16T02:36:18;95129.47;;;7.23;100.00
11329;BME280;5719;42.714;23.732;2022-10-16T02:38:45;95130.53;;;7.19;100.00
11329;BME280;5719;42.714;23.732;2022-10-16T02:41:12;95119.41;;;7.18;100.00
11329;BME280;5719;42.714;23.732;2022-10-16T02:43:40;95123.72;;;7.18;100.00
11329;BME280;5719;42.714;23.732;2022-10-16T02:46:07;95134.00;;;7.18;100.00
11329;BME280;5719;42.714;23.732;2022-10-16T02:48:35;95129.00;;;7.15;100.00
11329;BME280;5719;42.714;23.732;2022-10-16T02:51:02;95128.78;;;7.02;100.00
11329;BME280;5719;42.714;23.732;2022-10-16T02:53:29;95139.53;;;7.10;100.00
11329;BME280;5719;42.714;23.732;2022-10-16T02:55:56;95141.47;;;7.05;100.00
11329;BME280;5719;42.714;23.732;2022-10-16T02:58:23;95135.88;;;6.97;100.00
11329;BME280;5719;42.714;23.732;2022-10-16T03:00:50;95146.00;;;7.00;100.00
11329;BME280;5719;42.714;23.732;2022-10-16T03:03:17;95138.53;;;6.96;100.00
11329;BME280;5719;42.714;23.732;2022-10-16T03:05:45;95141.78;;;6.99;100.00
11329;BME280;5719;42.714;23.732;2022-10-16T03:08:12;95134.00;;;7.01;99.20
11329;BME280;5719;42.714;23.732;2022-10-16T03:10:39;95136.72;;;6.98;98.30
11329;BME280;5719;42.714;23.732;2022-10-16T03:13:06;95139.69;;;6.88;97.43
11329;BME280;5719;42.714;23.732;2022-10-16T03:15:32;95145.81;;;6.86;97.55
11329;BME280;5719;42.714;23.732;2022-10-16T03:17:59;95137.03;;;6.73;98.36
11329;BME280;5719;42.714;23.732;2022-10-16T03:20:26;95150.09;;;6.68;100.00
11329;BME280;5719;42.714;23.732;2022-10-16T03:22:55;95148.34;;;6.69;100.00
11329;BME280;5719;42.714;23.732;2022-10-16T03:25:21;95146.75;;;6.66;100.00
11329;BME280;5719;42.714;23.732;2022-10-16T03:27:48;95143.75;;;6.57;100.00
11329;BME280;5719;42.714;23.732;2022-10-16T03:30:15;95152.00;;;6.63;100.00
11329;BME280;5719;42.714;23.732;2022-10-16T03:32:43;95159.25;;;6.55;100.00
11329;BME280;5719;42.714;23.732;2022-10-16T03:35:10;95149.19;;;6.51;100.00
11329;BME280;5719;42.714;23.732;2022-10-16T03:37:37;95160.91;;;6.56;100.00
11329;BME280;5719;42.714;23.732;2022-10-16T03:40:07;95160.91;;;6.56;99.35
11329;BME280;5719;42.714;23.732;2022-10-16T03:42:34;95158.00;;;6.45;99.20
11329;BME280;5719;42.714;23.732;2022-10-16T03:45:01;95154.63;;;6.45;99.14
11329;BME280;5719;42.714;23.732;2022-10-16T03:47:28;95158.00;;;6.45;98.07
11329;BME280;5719;42.714;23.732;2022-10-16T03:49:55;95151.06;;;6.28;99.14
11329;BME280;5719;42.714;23.732;2022-10-16T03:52:22;95152.88;;;6.26;98.42
11329;BME280;5719;42.714;23.732;2022-10-16T03:54:48;95149.53;;;6.24;97.94
11329;BME280;5719;42.714;23.732;2022-10-16T03:57:17;95149.81;;;6.18;98.81
11329;BME280;5719;42.714;23.732;2022-10-16T03:59:43;95152.56;;;6.14;98.47
11329;BME280;5719;42.714;23.732;2022-10-16T04:02:10;95156.03;;;6.13;97.86
11329;BME280;5719;42.714;23.732;2022-10-16T04:04:37;95156.03;;;6.13;97.01
11329;BME280;5719;42.714;23.732;2022-10-16T04:07:04;95157.75;;;6.12;96.74
11329;BME280;5719;42.714;23.732;2022-10-16T04:09:31;95160.31;;;6.12;96.11
11329;BME280;5719;42.714;23.732;2022-10-16T04:11:58;95161.28;;;6.10;96.18
11329;BME280;5719;42.714;23.732;2022-10-16T04:14:26;95166.63;;;6.05;96.07
11329;BME280;5719;42.714;23.732;2022-10-16T04:16:53;95155.41;;;5.87;95.43
11329;BME280;5719;42.714;23.732;2022-10-16T04:19:20;95166.63;;;5.85;95.66
11329;BME280;5719;42.714;23.732;2022-10-16T04:21:46;95119.81;;;5.60;95.87
11329;BME280;5719;42.714;23.732;2022-10-16T04:24:13;95159.13;;;5.80;95.94
11329;BME280;5719;42.714;23.732;2022-10-16T04:26:40;95154.31;;;5.73;96.86
11329;BME280;5719;42.714;23.732;2022-10-16T04:29:07;95159.75;;;5.65;97.59
11329;BME280;5719;42.714;23.732;2022-10-16T04:31:35;95147.34;;;5.56;97.85
11329;BME280;5719;42.714;23.732;2022-10-16T04:34:02;95165.28;;;5.56;98.75
11329;BME280;5719;42.714;23.732;2022-10-16T04:36:29;95170.78;;;5.47;100.00
11329;BME280;5719;42.714;23.732;2022-10-16T04:38:56;95167.63;;;5.40;100.00
11329;BME280;5719;42.714;23.732;2022-10-16T04:41:23;95170.59;;;5.31;100.00
11329;BME280;5719;42.714;23.732;2022-10-16T04:43:50;95176.44;;;5.35;100.00
11329;BME280;5719;42.714;23.732;2022-10-16T04:46:16;95176.47;;;5.33;100.00
11329;BME280;5719;42.714;23.732;2022-10-16T04:48:45;95174.81;;;5.32;100.00
11329;BME280;5719;42.714;23.732;2022-10-16T04:51:12;95179.53;;;5.21;100.00
11329;BME280;5719;42.714;23.732;2022-10-16T04:53:39;95183.75;;;5.22;100.00
11329;BME280;5719;42.714;23.732;2022-10-16T04:56:06;95189.06;;;5.18;100.00
11329;BME280;5719;42.714;23.732;2022-10-16T04:58:33;95188.44;;;5.13;100.00
11329;BME280;5719;42.714;23.732;2022-10-16T05:01:00;95179.78;;;5.15;100.00
11329;BME280;5719;42.714;23.732;2022-10-16T05:03:27;95192.41;;;5.20;100.00
11329;BME280;5719;42.714;23.732;2022-10-16T05:05:55;95192.13;;;5.27;100.00
11329;BME280;5719;42.714;23.732;2022-10-16T05:08:22;95199.72;;;5.29;100.00
11329;BME280;5719;42.714;23.732;2022-10-16T05:10:49;95189.34;;;5.32;100.00
11329;BME280;5719;42.714;23.732;2022-10-16T05:13:16;95204.56;;;5.36;100.00
11329;BME280;5719;42.714;23.732;2022-10-16T05:15:46;95212.13;;;5.39;100.00
11329;BME280;5719;42.714;23.732;2022-10-16T05:18:13;95196.16;;;5.33;100.00
11329;BME280;5719;42.714;23.732;2022-10-16T05:20:41;95214.50;;;5.44;100.00
11329;BME280;5719;42.714;23.732;2022-10-16T05:23:09;95209.91;;;5.52;100.00
11329;BME280;5719;42.714;23.732;2022-10-16T05:25:37;95204.38;;;5.61;100.00
11329;BME280;5719;42.714;23.732;2022-10-16T05:28:04;95200.56;;;5.71;100.00
11329;BME280;5719;42.714;23.732;2022-10-16T05:30:31;95212.81;;;5.85;100.00
11329;BME280;5719;42.714;23.732;2022-10-16T05:32:57;95213.34;;;5.93;100.00
11329;BME280;5719;42.714;23.732;2022-10-16T05:35:24;95212.91;;;6.04;100.00
11329;BME280;5719;42.714;23.732;2022-10-16T05:37:52;95201.19;;;6.17;100.00
11329;BME280;5719;42.714;23.732;2022-10-16T05:40:21;95215.56;;;6.41;100.00
11329;BME280;5719;42.714;23.732;2022-10-16T05:42:49;95216.63;;;6.56;100.00
11329;BME280;5719;42.714;23.732;2022-10-16T05:45:16;95214.25;;;6.70;100.00
11329;BME280;5719;42.714;23.732;2022-10-16T05:47:43;95219.25;;;6.92;100.00
11329;BME280;5719;42.714;23.732;2022-10-16T05:50:09;95226.88;;;7.12;100.00
11329;BME280;5719;42.714;23.732;2022-10-16T05:52:36;95232.81;;;7.31;100.00
11329;BME280;5719;42.714;23.732;2022-10-16T05:55:04;95216.03;;;7.41;100.00
11329;BME280;5719;42.714;23.732;2022-10-16T05:57:33;95224.09;;;7.69;100.00
11329;BME280;5719;42.714;23.732;2022-10-16T05:59:59;95223.03;;;7.90;100.00
11329;BME280;5719;42.714;23.732;2022-10-16T06:02:27;95225.91;;;8.02;100.00
11329;BME280;5719;42.714;23.732;2022-10-16T06:04:54;95230.81;;;8.23;100.00
11329;BME280;5719;42.714;23.732;2022-10-16T06:07:21;95233.41;;;8.41;100.00
11329;BME280;5719;42.714;23.732;2022-10-16T06:09:48;95226.03;;;8.50;100.00
11329;BME280;5719;42.714;23.732;2022-10-16T06:12:16;95224.50;;;8.63;100.00
11329;BME280;5719;42.714;23.732;2022-10-16T06:14:44;95220.56;;;8.72;100.00
11329;BME280;5719;42.714;23.732;2022-10-16T06:17:12;95235.50;;;8.98;100.00
11329;BME280;5719;42.714;23.732;2022-10-16T06:19:39;95237.75;;;9.20;100.00
11329;BME280;5719;42.714;23.732;2022-10-16T06:22:06;95241.06;;;9.38;100.00
11329;BME280;5719;42.714;23.732;2022-10-16T06:24:33;95243.88;;;9.64;100.00
11329;BME280;5719;42.714;23.732;2022-10-16T06:27:00;95236.59;;;9.87;99.92
11329;BME280;5719;42.714;23.732;2022-10-16T06:29:27;95197.09;;;9.84;98.72
11329;BME280;5719;42.714;23.732;2022-10-16T06:31:55;95254.28;;;10.38;98.14
11329;BME280;5719;42.714;23.732;2022-10-16T06:34:22;95255.41;;;10.62;97.03
11329;BME280;5719;42.714;23.732;2022-10-16T06:36:49;95257.41;;;10.86;95.86
11329;BME280;5719;42.714;23.732;2022-10-16T06:39:16;95270.38;;;11.14;94.32
11329;BME280;5719;42.714;23.732;2022-10-16T06:41:44;95268.00;;;11.38;92.30
11329;BME280;5719;42.714;23.732;2022-10-16T06:44:10;95264.53;;;11.65;91.75
11329;BME280;5719;42.714;23.732;2022-10-16T06:46:37;95266.16;;;11.80;90.15
11329;BME280;5719;42.714;23.732;2022-10-16T06:49:06;95270.53;;;11.93;88.05
11329;BME280;5719;42.714;23.732;2022-10-16T06:51:33;95267.38;;;12.02;88.41
11329;BME280;5719;42.714;23.732;2022-10-16T06:54:02;95265.97;;;12.23;86.58
11329;BME280;5719;42.714;23.732;2022-10-16T06:56:29;95273.59;;;12.51;86.63
11329;BME280;5719;42.714;23.732;2022-10-16T06:58:57;95275.25;;;12.77;85.67
11329;BME280;5719;42.714;23.732;2022-10-16T07:01:24;95288.72;;;13.08;83.82
11329;BME280;5719;42.714;23.732;2022-10-16T07:03:52;95275.75;;;13.33;82.09
11329;BME280;5719;42.714;23.732;2022-10-16T07:06:22;95277.22;;;13.61;79.09
11329;BME280;5719;42.714;23.732;2022-10-16T07:08:50;95282.66;;;13.82;79.07
11329;BME280;5719;42.714;23.732;2022-10-16T07:11:19;95284.44;;;14.05;78.64
11329;BME280;5719;42.714;23.732;2022-10-16T07:13:47;95282.78;;;14.28;77.22
11329;BME280;5719;42.714;23.732;2022-10-16T07:16:16;95280.00;;;14.18;75.53
11329;BME280;5719;42.714;23.732;2022-10-16T07:18:43;95304.78;;;14.11;76.71
11329;BME280;5719;42.714;23.732;2022-10-16T07:21:15;95297.53;;;14.27;75.60
11329;BME280;5719;42.714;23.732;2022-10-16T07:23:44;95295.88;;;14.50;75.54
11329;BME280;5719;42.714;23.732;2022-10-16T07:26:11;95291.38;;;14.52;74.51
11329;BME280;5719;42.714;23.732;2022-10-16T07:28:38;95292.28;;;14.75;74.46
11329;BME280;5719;42.714;23.732;2022-10-16T07:31:08;95296.69;;;14.96;73.49
11329;BME280;5719;42.714;23.732;2022-10-16T07:33:37;95287.31;;;15.05;73.13
11329;BME280;5719;42.714;23.732;2022-10-16T07:36:05;95295.75;;;15.31;72.41
11329;BME280;5719;42.714;23.732;2022-10-16T07:38:32;95288.09;;;15.51;68.74
11329;BME280;5719;42.714;23.732;2022-10-16T07:41:03;95296.09;;;15.82;69.11
11329;BME280;5719;42.714;23.732;2022-10-16T07:43:30;95300.00;;;15.87;65.00
11329;BME280;5719;42.714;23.732;2022-10-16T07:45:59;95299.47;;;16.04;64.45
11329;BME280;5719;42.714;23.732;2022-10-16T07:48:28;95291.66;;;16.04;63.66
11329;BME280;5719;42.714;23.732;2022-10-16T07:50:57;95289.31;;;16.22;63.28
11329;BME280;5719;42.714;23.732;2022-10-16T07:53:25;95297.88;;;16.24;62.08
11329;BME280;5719;42.714;23.732;2022-10-16T07:55:52;95291.22;;;16.31;60.78
11329;BME280;5719;42.714;23.732;2022-10-16T07:58:20;95288.97;;;16.47;59.98
11329;BME280;5719;42.714;23.732;2022-10-16T08:00:47;95289.75;;;16.38;60.87
11329;BME280;5719;42.714;23.732;2022-10-16T08:03:14;95289.75;;;16.38;61.27
11329;BME280;5719;42.714;23.732;2022-10-16T08:05:41;95291.78;;;16.66;60.51
11329;BME280;5719;42.714;23.732;2022-10-16T08:08:12;95289.09;;;16.78;59.36
11329;BME280;5719;42.714;23.732;2022-10-16T08:10:39;95295.22;;;16.67;59.07
11329;BME280;5719;42.714;23.732;2022-10-16T08:13:06;95300.19;;;16.70;59.16
11329;BME280;5719;42.714;23.732;2022-10-16T08:15:37;95303.94;;;16.56;59.20
11329;BME280;5719;42.714;23.732;2022-10-16T08:18:05;95300.25;;;16.59;59.92
11329;BME280;5719;42.714;23.732;2022-10-16T08:20:33;95287.06;;;16.60;59.32
11329;BME280;5719;42.714;23.732;2022-10-16T08:23:00;95286.81;;;16.32;60.72
11329;BME280;5719;42.714;23.732;2022-10-16T08:25:28;95296.25;;;16.44;60.24
11329;BME280;5719;42.714;23.732;2022-10-16T08:27:55;95288.59;;;16.63;59.75
11329;BME280;5719;42.714;23.732;2022-10-16T08:30:23;95289.28;;;16.86;59.05
11329;BME280;5719;42.714;23.732;2022-10-16T08:32:52;95289.31;;;17.16;56.95
11329;BME280;5719;42.714;23.732;2022-10-16T08:35:18;95294.69;;;17.45;56.38
11329;BME280;5719;42.714;23.732;2022-10-16T08:37:45;95298.38;;;17.63;56.24
11329;BME280;5719;42.714;23.732;2022-10-16T08:40:18;95295.38;;;17.87;54.00
11329;BME280;5719;42.714;23.732;2022-10-16T08:43:00;95290.59;;;18.01;52.52
11329;BME280;5719;42.714;23.732;2022-10-16T08:45:39;95291.28;;;17.94;51.49
11329;BME280;5719;42.714;23.732;2022-10-16T08:48:17;95296.09;;;17.98;52.16
11329;BME280;5719;42.714;23.732;2022-10-16T08:50:45;95296.44;;;18.24;51.84
11329;BME280;5719;42.714;23.732;2022-10-16T08:53:17;95294.34;;;18.18;51.54
11329;BME280;5719;42.714;23.732;2022-10-16T08:55:48;95297.94;;;18.46;52.18
11329;BME280;5719;42.714;23.732;2022-10-16T08:58:18;95304.72;;;18.58;50.94
11329;BME280;5719;42.714;23.732;2022-10-16T09:00:47;95296.03;;;18.67;50.23
11329;BME280;5719;42.714;23.732;2022-10-16T09:03:30;95297.13;;;18.55;50.91
11329;BME280;5719;42.714;23.732;2022-10-16T09:06:21;95292.59;;;18.57;51.80
11329;BME280;5719;42.714;23.732;2022-10-16T09:09:04;95296.31;;;18.54;52.10
11329;BME280;5719;42.714;23.732;2022-10-16T09:11:41;95300.31;;;18.68;51.29
11329;BME280;5719;42.714;23.732;2022-10-16T09:14:26;95292.84;;;18.83;51.93
11329;BME280;5719;42.714;23.732;2022-10-16T09:17:11;95295.59;;;18.91;50.28
11329;BME280;5719;42.714;23.732;2022-10-16T09:19:47;95289.88;;;19.15;49.73
11329;BME280;5719;42.714;23.732;2022-10-16T09:22:20;95298.25;;;19.37;47.74
11329;BME280;5719;42.714;23.732;2022-10-16T09:24:48;95293.28;;;19.34;46.73
11329;BME280;5719;42.714;23.732;2022-10-16T09:27:15;95299.84;;;19.57;46.94
11329;BME280;5719;42.714;23.732;2022-10-16T09:29:43;95289.69;;;19.72;47.04
11329;BME280;5719;42.714;23.732;2022-10-16T09:32:12;95295.28;;;19.87;46.33
11329;BME280;5719;42.714;23.732;2022-10-16T09:34:45;95279.19;;;19.99;46.65
11329;BME280;5719;42.714;23.732;2022-10-16T09:37:17;95294.97;;;20.17;44.05
11329;BME280;5719;42.714;23.732;2022-10-16T09:39:46;95286.25;;;20.17;44.36
11329;BME280;5719;42.714;23.732;2022-10-16T09:42:15;95269.97;;;20.13;43.66
11329;BME280;5719;42.714;23.732;2022-10-16T09:44:47;95272.41;;;19.97;44.36
11329;BME280;5719;42.714;23.732;2022-10-16T09:47:18;95268.72;;;20.17;44.97
11329;BME280;5719;42.714;23.732;2022-10-16T09:49:55;95269.06;;;20.22;43.04
11329;BME280;5719;42.714;23.732;2022-10-16T09:52:23;95273.06;;;20.26;43.06
11329;BME280;5719;42.714;23.732;2022-10-16T09:54:52;95271.50;;;20.33;42.42
11329;BME280;5719;42.714;23.732;2022-10-16T09:57:20;95275.22;;;20.58;41.90
11329;BME280;5719;42.714;23.732;2022-10-16T09:59:48;95265.00;;;20.81;42.05
11329;BME280;5719;42.714;23.732;2022-10-16T10:02:17;95256.28;;;20.98;40.76
11329;BME280;5719;42.714;23.732;2022-10-16T10:04:49;95273.84;;;21.15;41.07
11329;BME280;5719;42.714;23.732;2022-10-16T10:07:23;95257.34;;;21.31;41.32
11329;BME280;5719;42.714;23.732;2022-10-16T10:09:50;95258.03;;;21.75;40.46
11329;BME280;5719;42.714;23.732;2022-10-16T10:12:19;95263.09;;;22.02;39.63
11329;BME280;5719;42.714;23.732;2022-10-16T10:14:48;95251.25;;;22.22;39.33
11329;BME280;5719;42.714;23.732;2022-10-16T10:17:18;95252.41;;;22.20;38.56
11329;BME280;5719;42.714;23.732;2022-10-16T10:19:51;95254.56;;;22.16;39.39
11329;BME280;5719;42.714;23.732;2022-10-16T10:22:41;95252.28;;;22.21;38.26
11329;BME280;5719;42.714;23.732;2022-10-16T10:25:25;95249.94;;;22.26;37.76
11329;BME280;5719;42.714;23.732;2022-10-16T10:28:03;95239.28;;;22.44;37.38
11329;BME280;5719;42.714;23.732;2022-10-16T10:30:40;95245.88;;;22.40;37.10
11329;BME280;5719;42.714;23.732;2022-10-16T10:33:17;95235.97;;;22.34;36.60
11329;BME280;5719;42.714;23.732;2022-10-16T10:35:50;95247.69;;;22.39;36.13
11329;BME280;5719;42.714;23.732;2022-10-16T10:38:30;95251.13;;;22.32;35.45
11329;BME280;5719;42.714;23.732;2022-10-16T10:41:07;95248.69;;;22.46;35.88
11329;BME280;5719;42.714;23.732;2022-10-16T10:43:47;95244.72;;;22.51;35.46
11329;BME280;5719;42.714;23.732;2022-10-16T10:46:25;95248.66;;;22.63;35.77
11329;BME280;5719;42.714;23.732;2022-10-16T10:49:16;95242.59;;;22.70;34.84
11329;BME280;5719;42.714;23.732;2022-10-16T10:51:54;95247.69;;;22.47;35.52
11329;BME280;5719;42.714;23.732;2022-10-16T10:54:28;95245.38;;;22.53;35.16
11329;BME280;5719;42.714;23.732;2022-10-16T10:57:02;95241.94;;;22.44;36.74
11329;BME280;5719;42.714;23.732;2022-10-16T10:59:43;95246.06;;;22.55;35.63
11329;BME280;5719;42.714;23.732;2022-10-16T11:02:23;95233.88;;;22.62;35.77
11329;BME280;5719;42.714;23.732;2022-10-16T11:07:47;95232.03;;;23.03;35.11
11329;BME280;5719;42.714;23.732;2022-10-16T11:10:19;95232.22;;;22.85;35.24
11329;BME280;5719;42.714;23.732;2022-10-16T11:12:49;95240.16;;;22.69;35.34
11329;BME280;5719;42.714;23.732;2022-10-16T11:15:20;95235.63;;;23.10;34.89
11329;BME280;5719;42.714;23.732;2022-10-16T11:20:20;95236.16;;;23.68;34.76
11329;BME280;5719;42.714;23.732;2022-10-16T11:22:53;95221.63;;;23.72;33.25
11329;BME280;5719;42.714;23.732;2022-10-16T11:25:26;95230.59;;;23.55;34.81
11329;BME280;5719;42.714;23.732;2022-10-16T11:27:57;95230.19;;;23.27;35.07
11329;BME280;5719;42.714;23.732;2022-10-16T11:30:29;95234.28;;;23.30;34.73
11329;BME280;5719;42.714;23.732;2022-10-16T11:33:04;95238.25;;;23.42;34.31
11329;BME280;5719;42.714;23.732;2022-10-16T11:35:41;95242.34;;;23.36;34.88
11329;BME280;5719;42.714;23.732;2022-10-16T11:38:14;95228.53;;;23.26;33.70
11329;BME280;5719;42.714;23.732;2022-10-16T11:40:47;95231.66;;;23.22;35.07
11329;BME280;5719;42.714;23.732;2022-10-16T11:43:22;95227.19;;;23.38;34.31
11329;BME280;5719;42.714;23.732;2022-10-16T11:45:54;95226.53;;;23.44;34.78
11329;BME280;5719;42.714;23.732;2022-10-16T11:48:27;95231.09;;;23.51;34.44
11329;BME280;5719;42.714;23.732;2022-10-16T11:51:00;95226.66;;;23.51;33.66
11329;BME280;5719;42.714;23.732;2022-10-16T11:53:39;95234.91;;;23.56;33.91
11329;BME280;5719;42.714;23.732;2022-10-16T11:56:13;95190.91;;;23.24;34.12
11329;BME280;5719;42.714;23.732;2022-10-16T11:58:50;95231.81;;;23.44;34.30
11329;BME280;5719;42.714;23.732;2022-10-16T12:01:24;95231.13;;;23.42;34.11
11329;BME280;5719;42.714;23.732;2022-10-16T12:04:06;95238.38;;;23.57;34.31
11329;BME280;5719;42.714;23.732;2022-10-16T12:06:41;95228.66;;;23.49;34.20
11329;BME280;5719;42.714;23.732;2022-10-16T12:09:16;95232.16;;;23.25;34.55
11329;BME280;5719;42.714;23.732;2022-10-16T12:11:48;95244.84;;;23.46;35.22
11329;BME280;5719;42.714;23.732;2022-10-16T12:17:03;95236.72;;;23.56;34.27
11329;BME280;5719;42.714;23.732;2022-10-16T12:19:32;95236.94;;;23.77;34.42
11329;BME280;5719;42.714;23.732;2022-10-16T12:22:01;95232.50;;;23.77;34.83
11329;BME280;5719;42.714;23.732;2022-10-16T12:24:34;95237.28;;;23.74;33.46
11329;BME280;5719;42.714;23.732;2022-10-16T12:27:06;95242.47;;;23.90;34.07
11329;BME280;5719;42.714;23.732;2022-10-16T12:29:44;95238.94;;;23.75;34.06
11329;BME280;5719;42.714;23.732;2022-10-16T12:32:25;95234.91;;;23.87;34.40
11329;BME280;5719;42.714;23.732;2022-10-16T12:34:54;95243.19;;;23.84;34.16
11329;BME280;5719;42.714;23.732;2022-10-16T12:37:23;95237.41;;;23.88;34.12
11329;BME280;5719;42.714;23.732;2022-10-16T12:39:56;95243.94;;;24.01;34.30
11329;BME280;5719;42.714;23.732;2022-10-16T12:42:38;95241.72;;;24.12;33.73
11329;BME280;5719;42.714;23.732;2022-10-16T12:45:24;95242.69;;;24.19;33.32
11329;BME280;5719;42.714;23.732;2022-10-16T12:47:53;95253.72;;;23.92;33.74
11329;BME280;5719;42.714;23.732;2022-10-16T12:50:26;95251.84;;;23.70;34.26
11329;BME280;5719;42.714;23.732;2022-10-16T12:52:53;95242.94;;;23.71;34.53
11329;BME280;5719;42.714;23.732;2022-10-16T12:55:21;95251.56;;;23.40;34.45
11329;BME280;5719;42.714;23.732;2022-10-16T12:58:09;95261.28;;;23.56;35.12
11329;BME280;5719;42.714;23.732;2022-10-16T13:00:44;95258.19;;;23.53;34.43
11329;BME280;5719;42.714;23.732;2022-10-16T13:03:25;95256.22;;;23.38;34.17
11329;BME280;5719;42.714;23.732;2022-10-16T13:06:08;95259.06;;;23.13;34.94
11329;BME280;5719;42.714;23.732;2022-10-16T13:08:56;95256.56;;;23.19;34.25
11329;BME280;5719;42.714;23.732;2022-10-16T13:11:36;95251.63;;;23.16;34.44
11329;BME280;5719;42.714;23.732;2022-10-16T13:14:22;95259.22;;;23.19;34.66
11329;BME280;5719;42.714;23.732;2022-10-16T13:17:00;95254.28;;;23.16;33.82
11329;BME280;5719;42.714;23.732;2022-10-16T13:19:35;95254.56;;;23.21;34.46
11329;BME280;5719;42.714;23.732;2022-10-16T13:22:13;95254.09;;;23.42;34.07
11329;BME280;5719;42.714;23.732;2022-10-16T13:24:59;95253.09;;;23.35;34.19
11329;BME280;5719;42.714;23.732;2022-10-16T13:27:35;95259.56;;;23.08;33.44